Wednesday, October 18, 2017, 3:39 AM EDT
Back to Local

KOWD, Norwood Memorial Airport

Location: Norwood, MA, United States Lat: 42.183
Local Time: 3:39 AM EDT ( 7:39 GMT) Lon: -71.167
Time Zone: US/Eastern Elev: 49 ft

Show me the last for .
Show Coded

Time T Td Feel RH Dir Speed Gust Alt SLP Vis Weather Sky Remarks
2017-10-18 02:53 40 37 - 89 - Calm - 30.21 30.21 10 CLR None
2017-10-18 01:53 37 35 - 92 - Calm - 30.22 30.22 10 CLR 6-hr Min Temp (2am): 37.0°F
6-hr Max Temp (2am): 50.0°F
2017-10-18 00:53 44 38 42 78 170° 5 - 30.24 30.24 10 CLR 24-hr Min Temp (1am): 30.9°F
24-hr Max Temp (1am): 60.1°F
2017-10-17 23:53 46 38 45 73 210° 3 - 30.24 30.24 10 CLR None
2017-10-17 22:53 46 38 44 73 200° 5 - 30.25 30.25 10 CLR None
2017-10-17 21:53 45 37 43 73 170° 5 - 30.25 30.25 10 CLR None
2017-10-17 20:53 49 37 47 63 190° 5 - 30.25 30.24 10 CLR None
2017-10-17 19:53 50 37 47 60 180° 7 - 30.23 30.23 10 CLR 6-hr Min Temp (8pm): 45.0°F
6-hr Max Temp (8pm): 60.1°F
2017-10-17 18:53 46 34 42 62 180° 7 - 30.23 30.23 10 CLR None
2017-10-17 17:53 51 34 - 51 190° 6 - 30.21 30.21 10 CLR None
2017-10-17 16:53 59 29 - 31 200° 6 - 30.21 30.21 10 CLR None
2017-10-17 15:53 60 30 - 31 Variable 6 - 30.22 30.22 10 CLR None
2017-10-17 14:53 60 28 - 29 Variable 6 - 30.23 30.23 10 CLR None
2017-10-17 13:53 58 30 - 34 310° 8 - 30.25 30.24 10 CLR 6-hr Min Temp (2pm): 39.0°F
6-hr Max Temp (2pm): 57.9°F
2017-10-17 12:53 56 30 - 36 320° 6 - 30.27 30.26 10 CLR None
2017-10-17 11:53 54 31 - 41 320° 5 - 30.28 30.28 10 CLR None
2017-10-17 10:53 52 31 - 44 330° 6 - 30.29 30.29 10 CLR None
2017-10-17 09:53 50 34 47 53 300° 7 - 30.30 30.30 10 CLR None
2017-10-17 08:53 46 35 45 65 320° 3 - 30.30 30.30 10 CLR None
2017-10-17 07:53 39 33 - 79 - Calm - 30.29 30.28 10 CLR 6-hr Min Temp (8am): 30.9°F
6-hr Max Temp (8am): 41.0°F
2017-10-17 06:53 35 32 31 88 Variable 5 - 30.27 30.27 10 CLR None
2017-10-17 05:53 33 30 - 88 - Calm - 30.25 30.24 10 CLR None
2017-10-17 04:53 37 33 - 85 - Calm - 30.23 30.22 10 CLR None
2017-10-17 03:53 40 33 37 76 330° 5 - 30.21 30.20 10 CLR None

Support USWX by starting your Amazon purchase here.